Time;durP1;ratioP1;P1;durP2;ratioP2;P2;SDS_P1;SDS_P2;PMS_P1;PMS_P2;Temp;Humidity;BMP_temperature;BMP_pressure;BME280_temperature;BME280_humidity;BME280_pressure;Samples;Min_cycle;Max_cycle;Signal;HPM_P1;HPM_P2
2021/07/27 00:01:59;;;;;;;14.13;5.10;;;;;;;29.39;44.46;99463.19;4470173;32;33909;-62
2021/07/27 00:04:27;;;;;;;14.73;5.62;;;;;;;29.43;44.53;99465.13;4484042;32;34011;-62
2021/07/27 00:06:54;;;;;;;16.67;5.95;;;;;;;29.39;44.47;99455.78;4484235;32;34942;-62
2021/07/27 00:09:21;;;;;;;10.98;4.72;;;;;;;29.40;44.61;99459.34;4484268;32;34681;-62
2021/07/27 00:11:49;;;;;;;16.05;5.68;;;;;;;29.40;44.58;99453.84;4481391;32;77618;-62
2021/07/27 00:14:17;;;;;;;15.68;5.68;;;;;;;29.39;44.76;99450.28;4483163;32;34097;-62
2021/07/27 00:16:44;;;;;;;12.50;5.03;;;;;;;29.39;44.68;99439.28;4484296;32;33689;-62
2021/07/27 00:19:12;;;;;;;10.65;5.40;;;;;;;29.40;44.71;99445.59;4483493;32;34495;-62
2021/07/27 00:21:39;;;;;;;19.87;6.20;;;;;;;29.43;44.61;99447.81;4484091;32;33307;-61
2021/07/27 00:24:07;;;;;;;13.20;5.75;;;;;;;29.41;44.63;99448.06;4484098;32;33530;-62
2021/07/27 00:26:35;;;;;;;12.18;5.40;;;;;;;29.42;44.61;99457.12;4483847;32;34264;-62
2021/07/27 00:29:03;;;;;;;9.82;4.62;;;;;;;29.42;44.67;99457.94;4469876;32;34086;-62
2021/07/27 00:31:30;;;;;;;12.93;5.35;;;;;;;29.39;44.68;99458.53;4484035;32;33404;-61
2021/07/27 00:33:58;;;;;;;14.10;5.10;;;;;;;29.38;44.64;99456.88;4483770;32;33950;-62
2021/07/27 00:36:25;;;;;;;11.52;5.65;;;;;;;29.39;44.67;99455.78;4483146;32;34018;-62
2021/07/27 00:38:53;;;;;;;14.50;6.30;;;;;;;29.38;44.64;99462.38;4483844;32;33893;-62
2021/07/27 00:41:20;;;;;;;13.48;5.47;;;;;;;29.37;44.72;99465.38;4469494;32;34217;-62
2021/07/27 00:43:48;;;;;;;15.73;5.53;;;;;;;29.36;44.72;99472.81;4483770;32;33689;-61
2021/07/27 00:46:15;;;;;;;11.93;5.10;;;;;;;29.35;44.78;99471.16;4469552;32;33955;-62
2021/07/27 00:48:43;;;;;;;11.38;5.03;;;;;;;29.37;44.73;99465.38;4483631;32;33903;-61
2021/07/27 00:51:10;;;;;;;13.27;5.45;;;;;;;29.36;44.74;99475.56;4482514;32;33471;-62
2021/07/27 00:53:38;;;;;;;10.77;5.05;;;;;;;29.35;44.74;99475.84;4482831;32;33937;-62
2021/07/27 00:56:05;;;;;;;13.45;5.30;;;;;;;29.37;44.67;99479.12;4469428;32;33832;-61
2021/07/27 00:58:33;;;;;;;13.90;5.03;;;;;;;29.37;44.65;99479.12;4471081;32;33908;-62
2021/07/27 01:01:00;;;;;;;10.73;5.10;;;;;;;29.39;44.62;99480.50;4485596;32;33696;-61
2021/07/27 01:03:29;;;;;;;16.80;5.80;;;;;;;29.38;44.63;99491.78;4485394;32;33694;-61
2021/07/27 01:05:56;;;;;;;13.38;6.10;;;;;;;29.38;44.61;99494.53;4471400;32;34860;-61
2021/07/27 01:08:23;;;;;;;10.63;5.57;;;;;;;29.34;44.62;99493.44;4471351;32;33940;-61
2021/07/27 01:10:53;;;;;;;10.98;5.47;;;;;;;29.33;44.59;99486.25;4484752;32;34383;-61
2021/07/27 01:13:20;;;;;;;12.13;6.03;;;;;;;29.32;44.55;99496.44;4485552;32;34790;-61
2021/07/27 01:15:48;;;;;;;11.45;6.28;;;;;;;29.34;44.58;99476.94;4485418;32;34164;-61
2021/07/27 01:18:21;;;;;;;12.52;6.03;;;;;;;29.33;44.56;99486.25;4485432;32;34683;-61
2021/07/27 01:37:27;;;;;;;12.10;5.70;;;;;;;29.32;44.49;99479.12;4485416;32;33653;-62
2021/07/27 01:37:50;;;;;;;10.35;5.70;;;;;;;29.28;44.56;99467.03;4485300;32;34217;-61
2021/07/27 01:40:18;;;;;;;14.63;5.65;;;;;;;29.28;44.59;99472.53;4471098;32;34748;-61
2021/07/27 01:42:46;;;;;;;10.20;5.53;;;;;;;29.28;44.59;99467.84;4485205;32;34133;-61
2021/07/27 01:45:13;;;;;;;12.50;6.03;;;;;;;29.28;44.60;99465.09;4484598;32;34597;-61
2021/07/27 01:47:41;;;;;;;12.77;5.75;;;;;;;29.27;44.61;99455.22;4485156;32;34550;-62
2021/07/27 01:50:08;;;;;;;9.73;5.20;;;;;;;29.27;44.62;99454.38;4485218;32;34078;-62
2021/07/27 01:52:37;;;;;;;11.38;6.18;;;;;;;29.27;44.56;99451.63;4485245;32;33496;-62
2021/07/27 01:55:08;;;;;;;12.60;6.90;;;;;;;29.26;44.55;99452.75;4485164;32;33971;-61
2021/07/27 01:57:35;;;;;;;14.55;5.95;;;;;;;29.28;44.60;99450.53;4483399;32;34060;-61
2021/07/27 02:00:05;;;;;;;11.48;6.35;;;;;;;29.28;44.67;99442.28;4469297;32;35494;-61
2021/07/27 02:02:33;;;;;;;14.15;6.05;;;;;;;29.27;44.68;99449.72;4469564;32;34258;-61
2021/07/27 02:05:01;;;;;;;12.90;6.07;;;;;;;29.28;44.67;99445.03;4469747;32;33837;-61
2021/07/27 02:07:29;;;;;;;16.45;6.72;;;;;;;29.29;44.66;99446.72;4469273;32;34185;-61
2021/07/27 02:10:03;;;;;;;11.60;6.07;;;;;;;29.29;44.69;99447.53;4468232;32;34796;-61
2021/07/27 02:12:48;;;;;;;17.23;6.40;;;;;;;29.27;44.74;99444.22;4468550;32;34271;-61
2021/07/27 02:15:17;;;;;;;14.95;5.82;;;;;;;29.29;44.72;99441.22;4469460;32;33863;-61
2021/07/27 02:17:45;;;;;;;11.98;5.70;;;;;;;29.29;44.71;99443.97;4469844;32;34106;-61
2021/07/27 02:20:12;;;;;;;11.55;6.25;;;;;;;29.28;44.75;99453.28;4469094;32;34036;-61
2021/07/27 02:22:40;;;;;;;11.50;6.55;;;;;;;29.27;44.71;99443.41;4469279;32;34378;-62
2021/07/27 02:25:09;;;;;;;14.00;6.32;;;;;;;29.26;44.74;99448.06;4469350;32;34297;-61
2021/07/27 02:27:36;;;;;;;16.77;6.55;;;;;;;29.26;44.82;99448.06;4467909;32;34034;-60
2021/07/27 02:30:06;;;;;;;15.63;6.25;;;;;;;29.26;44.79;99453.56;4455455;32;34028;-61
2021/07/27 02:32:34;;;;;;;12.90;5.75;;;;;;;29.27;44.80;99449.72;4469275;32;34390;-62
2021/07/27 02:35:03;;;;;;;12.00;5.50;;;;;;;29.28;44.83;99453.28;4469911;32;33725;-61
2021/07/27 02:37:31;;;;;;;13.25;6.28;;;;;;;29.28;44.90;99456.03;4469186;32;33743;-61
2021/07/27 02:39:58;;;;;;;11.88;6.15;;;;;;;29.28;44.87;99458.78;4469151;32;33987;-61
2021/07/27 02:42:26;;;;;;;12.70;6.60;;;;;;;29.27;44.91;99463.44;4469167;32;33405;-62
2021/07/27 02:44:53;;;;;;;15.90;6.93;;;;;;;29.26;44.86;99472.81;4468171;32;34789;-61
2021/07/27 02:47:24;;;;;;;15.10;6.22;;;;;;;29.25;44.81;99460.16;4469075;32;33995;-61
2021/07/27 02:49:52;;;;;;;10.63;5.70;;;;;;;29.25;44.84;99465.66;4469140;32;34244;-61
2021/07/27 02:52:20;;;;;;;13.70;5.75;;;;;;;29.25;44.71;99462.09;4469527;32;34309;-61
2021/07/27 02:54:47;;;;;;;14.05;6.32;;;;;;;29.26;44.80;99469.22;4468916;32;33846;-62
2021/07/27 02:57:15;;;;;;;12.05;6.47;;;;;;;29.25;44.69;99476.66;4469184;32;34759;-62
2021/07/27 02:59:43;;;;;;;12.48;6.50;;;;;;;29.25;44.68;99475.84;4468993;32;34476;-61
2021/07/27 03:02:10;;;;;;;15.52;7.07;;;;;;;29.22;44.77;99474.44;4468947;32;33789;-61
2021/07/27 03:04:38;;;;;;;15.73;6.62;;;;;;;29.25;44.86;99473.91;4469033;32;33870;-62
2021/07/27 03:07:06;;;;;;;12.37;6.05;;;;;;;29.26;44.86;99477.47;4469019;32;34313;-61
2021/07/27 03:09:45;;;;;;;14.38;6.47;;;;;;;29.26;44.90;99477.47;4474276;32;34147;-62
2021/07/27 03:12:12;;;;;;;14.52;6.47;;;;;;;29.25;44.87;99482.16;4484511;32;34445;-61
2021/07/27 03:14:40;;;;;;;11.65;5.95;;;;;;;29.27;44.80;99476.38;4484700;32;34124;-61
2021/07/27 03:17:07;;;;;;;13.75;6.68;;;;;;;29.26;44.82;99485.72;4484554;32;33331;-61
2021/07/27 03:19:35;;;;;;;10.65;5.90;;;;;;;29.26;44.80;99488.47;4484256;32;34609;-61
2021/07/27 03:22:03;;;;;;;15.13;6.75;;;;;;;29.27;44.80;99498.34;4484761;32;33261;-61
2021/07/27 03:24:30;;;;;;;14.20;6.37;;;;;;;29.26;44.82;99504.97;4484775;32;33612;-61
2021/07/27 03:26:58;;;;;;;15.60;6.75;;;;;;;29.26;44.80;99508.53;4483843;32;33716;-61
2021/07/27 03:29:26;;;;;;;13.73;6.87;;;;;;;29.25;44.88;99511.56;4484613;32;34602;-61
2021/07/27 03:32:12;;;;;;;12.75;5.85;;;;;;;29.25;44.84;99506.06;4484632;32;34190;-61
2021/07/27 03:34:41;;;;;;;15.02;6.70;;;;;;;29.26;44.75;99503.03;4484421;32;34112;-61
2021/07/27 03:37:12;;;;;;;12.40;6.25;;;;;;;29.23;44.89;99520.06;4484578;32;33813;-61
2021/07/27 03:39:39;;;;;;;15.00;6.70;;;;;;;29.24;44.93;99516.22;4484495;32;33988;-61
2021/07/27 03:42:08;;;;;;;13.43;6.80;;;;;;;29.23;44.89;99515.38;4484238;32;33411;-61
2021/07/27 03:44:36;;;;;;;13.15;6.68;;;;;;;29.22;44.88;99521.97;4482530;32;33986;-62
2021/07/27 03:47:03;;;;;;;16.05;6.22;;;;;;;29.21;44.77;99525.00;4484476;32;34979;-61
2021/07/27 03:49:31;;;;;;;16.90;7.07;;;;;;;29.20;44.68;99529.69;4484299;32;34136;-62
2021/07/27 03:52:01;;;;;;;14.05;6.80;;;;;;;29.20;44.76;99521.44;4484416;32;34411;-61
2021/07/27 03:54:32;;;;;;;14.43;6.75;;;;;;;29.20;44.87;99521.44;4484370;32;33968;-61
2021/07/27 03:57:03;;;;;;;12.45;6.43;;;;;;;29.21;44.88;99519.50;4484125;32;34599;-61
2021/07/27 03:59:31;;;;;;;12.95;7.03;;;;;;;29.23;44.75;99520.06;4469811;32;34234;-62
2021/07/27 04:02:00;;;;;;;12.25;5.85;;;;;;;29.22;44.69;99510.97;4469010;32;34430;-62
2021/07/27 04:04:32;;;;;;;19.02;6.85;;;;;;;29.22;44.76;99518.41;4468459;32;34515;-62
2021/07/27 04:06:59;;;;;;;13.93;6.40;;;;;;;29.22;44.78;99504.66;4468543;32;34702;-62
2021/07/27 04:09:27;;;;;;;9.88;5.97;;;;;;;29.22;44.78;99504.66;4468357;32;34039;-62
2021/07/27 04:11:55;;;;;;;14.60;6.43;;;;;;;29.20;44.80;99510.44;4467227;32;33144;-62
2021/07/27 04:14:23;;;;;;;15.50;6.60;;;;;;;29.22;44.81;99515.66;4468587;32;34410;-62
2021/07/27 04:16:50;;;;;;;14.27;6.93;;;;;;;29.21;44.78;99516.75;4468655;32;34018;-61
2021/07/27 04:19:19;;;;;;;17.27;7.15;;;;;;;29.20;44.79;99521.44;4468427;32;33869;-61
2021/07/27 04:21:47;;;;;;;16.98;6.95;;;;;;;29.20;44.79;99521.44;4468426;32;33551;-62
2021/07/27 04:24:14;;;;;;;13.73;7.18;;;;;;;29.21;44.88;99517.59;4468054;32;33881;-61
2021/07/27 04:26:42;;;;;;;18.35;7.10;;;;;;;29.21;44.86;99525.81;4468425;32;35029;-61
2021/07/27 04:29:09;;;;;;;16.20;6.57;;;;;;;29.21;44.88;99528.56;4468363;32;33867;-62
2021/07/27 04:31:39;;;;;;;15.07;6.68;;;;;;;29.21;44.85;99523.06;4467501;32;33423;-61
2021/07/27 04:34:07;;;;;;;15.40;7.47;;;;;;;29.21;44.90;99530.50;4468662;32;34446;-62
2021/07/27 04:36:34;;;;;;;12.23;6.57;;;;;;;29.21;44.89;99536.81;4468386;32;33724;-62
2021/07/27 04:39:02;;;;;;;17.42;6.95;;;;;;;29.21;44.89;99533.25;4468083;32;33551;-62
2021/07/27 04:41:30;;;;;;;15.35;7.12;;;;;;;29.20;44.86;99532.44;4454051;32;34304;-62
2021/07/27 04:43:58;;;;;;;13.85;6.32;;;;;;;29.20;44.86;99535.16;4468457;32;34643;-62
2021/07/27 04:46:25;;;;;;;15.65;7.10;;;;;;;29.20;44.87;99539.84;4494332;31;34171;-62
2021/07/27 04:48:53;;;;;;;12.52;6.35;;;;;;;29.21;44.79;99550.56;4499285;31;34282;-62
2021/07/27 04:51:20;;;;;;;11.95;6.50;;;;;;;29.20;44.77;99542.59;4480961;31;34722;-64
2021/07/27 04:53:49;;;;;;;12.57;6.35;;;;;;;29.20;44.79;99540.66;4464607;32;33850;-63
2021/07/27 04:56:16;;;;;;;13.62;7.07;;;;;;;29.21;44.80;99552.47;4474097;32;34258;-63
2021/07/27 04:58:47;;;;;;;13.15;6.53;;;;;;;29.19;44.80;99536.28;4454305;32;33996;-62
2021/07/27 05:01:15;;;;;;;27.00;7.43;;;;;;;29.20;44.76;99532.44;4481756;31;34224;-64
2021/07/27 05:03:43;;;;;;;21.30;6.80;;;;;;;29.20;44.72;99537.91;4499130;31;34084;-62
2021/07/27 05:06:11;;;;;;;15.75;6.40;;;;;;;29.20;44.72;99554.41;4484978;31;34691;-62
2021/07/27 05:08:39;;;;;;;12.65;6.18;;;;;;;29.20;44.74;99553.59;4499028;31;34782;-64
2021/07/27 05:11:06;;;;;;;15.05;7.07;;;;;;;29.18;44.73;99548.34;4493722;31;33204;-61
2021/07/27 05:13:36;;;;;;;17.83;7.40;;;;;;;29.18;44.72;99548.34;4474309;31;34114;-61
2021/07/27 05:16:06;;;;;;;;;;;;;;;29.18;44.72;99558.50;4444997;32;34678;-63
2021/07/27 05:18:34;;;;;;;14.60;6.35;;;;;;;29.31;44.44;99573.66;4477013;32;33904;-62
2021/07/27 05:21:01;;;;;;;13.32;6.75;;;;;;;29.21;44.60;99574.47;4483034;32;33186;-61
2021/07/27 05:23:29;;;;;;;16.30;6.87;;;;;;;29.18;44.67;99581.31;4483224;32;34856;-62
2021/07/27 05:25:56;;;;;;;11.70;6.82;;;;;;;29.18;44.69;99585.97;4483178;32;34327;-62
2021/07/27 05:28:27;;;;;;;12.75;6.62;;;;;;;29.18;44.70;99584.06;4482977;32;34588;-61
2021/07/27 05:30:54;;;;;;;17.73;7.10;;;;;;;29.17;44.71;99571.44;4476987;32;33700;-62
2021/07/27 05:33:22;;;;;;;12.98;5.78;;;;;;;29.17;44.67;99576.91;4482968;32;34112;-63
2021/07/27 05:35:49;;;;;;;11.57;6.57;;;;;;;29.18;44.64;99577.75;4483026;32;34264;-62
2021/07/27 05:38:17;;;;;;;15.27;6.85;;;;;;;29.17;44.63;99574.16;4482867;32;33345;-63
2021/07/27 05:40:50;;;;;;;17.67;6.45;;;;;;;29.17;44.62;99581.59;4482946;32;33728;-62
2021/07/27 05:43:17;;;;;;;12.93;6.12;;;;;;;29.17;44.61;99579.66;4483880;32;33909;-62
2021/07/27 05:45:45;;;;;;;11.90;6.35;;;;;;;29.18;44.60;99591.47;4485253;32;34013;-63
2021/07/27 05:48:12;;;;;;;16.25;6.18;;;;;;;29.16;44.60;99594.50;4485232;32;34864;-62
2021/07/27 05:50:40;;;;;;;11.18;6.03;;;;;;;29.18;44.60;99602.47;4485058;32;33429;-62
2021/07/27 05:53:07;;;;;;;14.23;6.35;;;;;;;29.17;44.59;99603.56;4485556;32;34772;-63
2021/07/27 05:55:35;;;;;;;14.52;6.62;;;;;;;29.18;44.58;99602.47;4485207;32;34894;-62
2021/07/27 05:58:02;;;;;;;12.95;6.87;;;;;;;29.17;44.57;99601.66;4485311;32;34815;-63
2021/07/27 06:00:30;;;;;;;13.77;6.25;;;;;;;29.16;44.55;99605.50;4485366;32;34448;-61
2021/07/27 06:02:58;;;;;;;13.55;5.95;;;;;;;29.17;44.57;99604.41;4485032;32;33717;-62
2021/07/27 06:05:25;;;;;;;10.90;6.40;;;;;;;29.17;44.56;99609.06;4484954;32;33567;-61
2021/07/27 06:07:52;;;;;;;11.82;5.90;;;;;;;29.17;44.53;99606.31;4479042;32;34349;-61
2021/07/27 06:10:20;;;;;;;10.95;5.47;;;;;;;29.17;44.53;99601.66;4485009;32;33636;-61
2021/07/27 06:12:47;;;;;;;11.05;6.43;;;;;;;29.16;44.52;99600.00;4484789;32;34920;-62
2021/07/27 06:15:15;;;;;;;10.15;6.07;;;;;;;29.16;44.50;99605.50;4484963;32;34486;-62
2021/07/27 06:17:43;;;;;;;12.30;5.95;;;;;;;29.16;44.50;99605.50;4485095;32;34155;-61
2021/07/27 06:20:10;;;;;;;10.75;5.47;;;;;;;29.16;44.51;99618.41;4484816;32;34166;-61
2021/07/27 06:22:38;;;;;;;9.65;5.75;;;;;;;29.16;44.51;99616.47;4485159;32;34175;-61
2021/07/27 06:25:10;;;;;;;10.68;5.75;;;;;;;29.16;44.51;99616.47;4483421;32;33755;-61
2021/07/27 06:27:38;;;;;;;11.18;6.25;;;;;;;29.17;44.52;99611.81;4484789;32;34978;-61
2021/07/27 06:30:08;;;;;;;9.15;6.15;;;;;;;29.16;44.48;99608.25;4484888;32;34441;-63
2021/07/27 06:32:35;;;;;;;12.05;5.90;;;;;;;29.16;44.50;99607.41;4485035;32;33904;-62
2021/07/27 06:35:03;;;;;;;11.32;5.93;;;;;;;29.18;44.46;99602.47;4484909;32;34941;-62
2021/07/27 06:37:31;;;;;;;10.00;5.78;;;;;;;29.16;44.48;99607.41;4484703;32;33961;-62
2021/07/27 06:39:58;;;;;;;8.95;5.50;;;;;;;29.15;44.48;99606.59;4484888;32;33443;-61
2021/07/27 06:42:26;;;;;;;10.50;5.55;;;;;;;29.15;44.48;99603.84;4484689;32;33958;-61
2021/07/27 06:44:53;;;;;;;10.27;5.95;;;;;;;29.15;44.48;99603.84;4484654;32;34166;-62
2021/07/27 06:47:21;;;;;;;9.93;6.03;;;;;;;29.17;44.48;99607.13;4484684;32;33759;-62
2021/07/27 06:49:49;;;;;;;10.02;5.93;;;;;;;29.16;44.47;99612.91;4484730;32;34205;-62
2021/07/27 06:52:21;;;;;;;12.25;5.72;;;;;;;29.14;44.50;99613.16;4484940;32;33480;-62
2021/07/27 06:54:49;;;;;;;8.48;5.22;;;;;;;29.15;44.50;99611.28;4484002;32;33989;-61
2021/07/27 06:57:17;;;;;;;7.93;5.28;;;;;;;29.15;44.46;99608.53;4481794;32;33875;-62
2021/07/27 06:59:44;;;;;;;10.95;6.03;;;;;;;29.16;44.42;99611.00;4483537;31;34206;-61
2021/07/27 07:02:12;;;;;;;9.57;5.47;;;;;;;29.16;44.46;99624.72;4500248;31;34139;-61
2021/07/27 07:04:40;;;;;;;9.13;5.45;;;;;;;29.15;44.45;99617.59;4481225;31;34394;-62
2021/07/27 07:07:08;;;;;;;9.90;5.37;;;;;;;29.15;44.45;99627.75;4482118;31;34550;-68
2021/07/27 07:09:35;;;;;;;11.18;5.68;;;;;;;29.15;44.39;99633.25;4468858;32;33470;-68
2021/07/27 07:12:08;;;;;;;9.30;4.95;;;;;;;29.15;44.39;99628.56;4455643;32;34014;-68
2021/07/27 07:14:35;;;;;;;14.13;5.10;;;;;;;29.16;44.30;99638.47;4455118;32;33969;-67
2021/07/27 07:17:03;;;;;;;11.85;5.10;;;;;;;29.17;44.15;99633.78;4454696;32;34965;-68
2021/07/27 07:19:31;;;;;;;15.30;5.90;;;;;;;29.17;44.11;99633.78;4468970;32;33311;-69
2021/07/27 07:21:58;;;;;;;11.00;4.90;;;;;;;29.18;44.03;99636.25;4468945;32;33968;-68
2021/07/27 07:24:26;;;;;;;9.00;4.80;;;;;;;29.19;43.99;99632.44;4454707;32;34199;-68
2021/07/27 07:26:53;;;;;;;8.60;4.80;;;;;;;29.19;43.98;99637.09;4468836;32;34398;-63
2021/07/27 07:29:21;;;;;;;14.40;4.93;;;;;;;29.20;43.89;99641.50;4470334;32;33220;-62
2021/07/27 07:31:48;;;;;;;10.43;5.05;;;;;;;29.21;43.97;99643.16;4470251;32;34076;-62
2021/07/27 07:34:16;;;;;;;9.93;5.20;;;;;;;29.21;44.07;99643.97;4489908;31;33975;-62
2021/07/27 07:36:43;;;;;;;15.23;5.45;;;;;;;29.22;44.22;99651.13;4489402;31;34998;-61
2021/07/27 07:39:11;;;;;;;10.82;5.37;;;;;;;29.22;44.29;99644.81;4484086;32;34033;-61
2021/07/27 07:41:38;;;;;;;9.82;5.32;;;;;;;29.22;44.31;99656.63;4471656;32;33955;-61
2021/07/27 07:44:06;;;;;;;10.82;5.10;;;;;;;29.23;44.35;99658.25;4468694;32;33980;-61
2021/07/27 07:46:33;;;;;;;8.88;4.68;;;;;;;29.25;44.43;99659.94;4483833;31;33749;-61
2021/07/27 07:49:01;;;;;;;13.32;5.47;;;;;;;29.25;44.45;99663.50;4499470;31;34276;-62
2021/07/27 07:51:29;;;;;;;11.30;4.80;;;;;;;29.27;44.50;99669.53;4500009;31;34087;-61
2021/07/27 07:53:56;;;;;;;11.63;4.97;;;;;;;29.29;44.52;99672.03;4485425;31;34567;-61
2021/07/27 07:56:24;;;;;;;9.25;4.60;;;;;;;29.31;44.49;99678.91;4495674;31;33854;-61
2021/07/27 07:58:51;;;;;;;9.98;5.10;;;;;;;29.32;44.50;99677.00;4484109;32;33573;-61
2021/07/27 08:01:19;;;;;;;10.55;4.65;;;;;;;29.34;44.53;99674.81;4484188;32;33519;-61
2021/07/27 08:03:47;;;;;;;8.27;4.15;;;;;;;29.35;44.58;99680.03;4484158;32;34162;-61
2021/07/27 08:06:14;;;;;;;9.38;5.15;;;;;;;29.37;44.61;99688.00;4483185;32;34138;-61
2021/07/27 08:08:42;;;;;;;7.10;4.62;;;;;;;29.37;44.61;99685.25;4483829;32;34728;-61
2021/07/27 08:11:11;;;;;;;8.43;4.53;;;;;;;29.38;44.63;99687.75;4483680;32;33585;-61
2021/07/27 08:13:38;;;;;;;8.60;4.78;;;;;;;29.39;44.63;99691.31;4483861;32;34027;-61
2021/07/27 08:16:09;;;;;;;7.82;4.55;;;;;;;29.40;44.65;99699.28;4484095;32;33954;-61
2021/07/27 08:18:37;;;;;;;8.70;4.55;;;;;;;29.41;44.67;99698.19;4457116;32;33044;-62
2021/07/27 08:21:06;;;;;;;12.70;4.82;;;;;;;29.41;44.65;99692.69;4483770;32;35097;-62
2021/07/27 08:23:33;;;;;;;8.05;4.95;;;;;;;29.43;44.66;99697.94;4487982;31;34466;-61
2021/07/27 08:26:03;;;;;;;9.63;4.72;;;;;;;29.44;44.74;99696.84;4468172;32;34562;-61
2021/07/27 08:28:31;;;;;;;10.50;4.10;;;;;;;29.44;44.73;99692.16;4467985;32;34317;-61
2021/07/27 08:30:58;;;;;;;7.87;4.65;;;;;;;29.47;44.72;99702.63;4468279;32;33839;-60
2021/07/27 08:33:26;;;;;;;9.48;4.57;;;;;;;29.46;44.70;99695.44;4467842;32;34230;-61
2021/07/27 08:35:53;;;;;;;9.63;4.78;;;;;;;29.46;44.74;99694.63;4467924;32;33894;-61
2021/07/27 08:38:20;;;;;;;9.50;4.07;;;;;;;29.45;44.78;99693.81;4467803;32;33620;-61
2021/07/27 08:40:50;;;;;;;7.37;4.20;;;;;;;29.46;44.78;99700.12;4482136;32;33540;-61
2021/07/27 08:43:17;;;;;;;14.43;4.32;;;;;;;29.48;44.80;99697.94;4473430;32;32508;-61
2021/07/27 08:45:45;;;;;;;8.75;4.40;;;;;;;29.48;44.77;99697.94;4472389;32;33981;-61
2021/07/27 08:48:22;;;;;;;8.20;4.45;;;;;;;29.49;44.76;99688.59;4483591;32;33431;-61
2021/07/27 08:50:51;;;;;;;9.98;4.55;;;;;;;29.49;44.80;99694.91;4483521;32;34112;-61
2021/07/27 08:53:19;;;;;;;9.85;4.65;;;;;;;29.51;44.80;99700.16;4483493;32;34290;-61
2021/07/27 08:55:47;;;;;;;8.93;4.43;;;;;;;29.53;44.77;99691.66;4483354;32;34092;-61
2021/07/27 08:58:15;;;;;;;15.50;4.45;;;;;;;29.52;44.78;99690.81;4483444;32;33698;-61
2021/07/27 09:00:43;;;;;;;7.55;4.32;;;;;;;29.51;44.88;99697.41;4480757;32;33813;-61
2021/07/27 09:03:16;;;;;;;9.25;5.03;;;;;;;29.53;44.88;99702.66;4481873;32;34054;-63
2021/07/27 09:05:45;;;;;;;8.27;4.12;;;;;;;29.51;44.92;99700.16;4483476;32;34019;-64
2021/07/27 09:08:15;;;;;;;7.05;4.30;;;;;;;29.52;44.88;99707.31;4483746;32;34217;-64
2021/07/27 09:10:43;;;;;;;8.10;4.28;;;;;;;29.53;44.91;99699.91;4482798;32;34869;-64
2021/07/27 09:13:11;;;;;;;8.05;4.57;;;;;;;29.53;44.82;99691.66;4483260;32;34028;-63
2021/07/27 09:15:40;;;;;;;13.20;4.70;;;;;;;29.51;44.82;99694.66;4483316;32;34573;-64
2021/07/27 09:18:15;;;;;;;9.88;4.75;;;;;;;29.52;44.75;99699.06;4471863;31;33317;-61
2021/07/27 09:20:47;;;;;;;9.55;4.40;;;;;;;29.51;44.83;99686.41;4484932;32;34207;-62
2021/07/27 09:23:21;;;;;;;9.30;4.00;;;;;;;29.51;44.80;99694.66;4477582;32;33937;-62
2021/07/27 09:25:53;;;;;;;7.25;4.32;;;;;;;29.52;44.79;99688.06;4470768;32;33817;-61
2021/07/27 09:28:21;;;;;;;11.30;4.30;;;;;;;29.51;44.82;99689.16;4485154;32;33559;-61
2021/07/27 09:30:50;;;;;;;10.57;4.37;;;;;;;29.53;44.81;99689.72;4485344;32;34422;-60
2021/07/27 09:33:17;;;;;;;9.35;3.95;;;;;;;29.53;44.83;99694.41;4472273;32;34519;-61
2021/07/27 09:35:44;;;;;;;6.90;4.12;;;;;;;29.53;44.80;99706.22;4479715;31;34120;-62
2021/07/27 09:38:16;;;;;;;9.80;4.37;;;;;;;29.55;44.80;99706.78;4499677;31;31883;-60
2021/07/27 09:40:49;;;;;;;8.93;4.53;;;;;;;29.55;44.83;99709.53;4500765;31;33920;-62
2021/07/27 09:43:37;;;;;;;11.15;4.35;;;;;;;29.55;44.86;99708.72;4500891;31;34166;-61
2021/07/27 09:46:04;;;;;;;7.35;4.22;;;;;;;29.57;44.82;99712.03;4486630;31;34877;-61
2021/07/27 09:48:35;;;;;;;7.10;3.95;;;;;;;29.56;44.85;99707.62;4486728;31;33631;-61
2021/07/27 09:51:03;;;;;;;7.68;4.50;;;;;;;29.56;44.82;99713.94;4500898;31;33862;-62
2021/07/27 09:53:30;;;;;;;9.32;4.12;;;;;;;29.56;44.86;99724.09;4500748;31;34039;-61
2021/07/27 09:55:58;;;;;;;7.30;3.90;;;;;;;29.58;44.84;99724.69;4486360;31;34824;-61
2021/07/27 09:58:28;;;;;;;9.15;3.75;;;;;;;29.58;44.83;99727.44;4486605;31;33956;-61
2021/07/27 10:01:01;;;;;;;8.65;4.20;;;;;;;29.58;44.83;99728.25;4486913;31;33905;-60
2021/07/27 10:03:32;;;;;;;8.13;3.87;;;;;;;29.58;44.82;99732.94;4469455;32;33870;-61
2021/07/27 10:06:01;;;;;;;8.57;3.95;;;;;;;29.58;44.87;99738.44;4454352;32;33466;-61
2021/07/27 10:08:32;;;;;;;7.40;4.22;;;;;;;29.57;44.80;99736.78;4452883;32;34045;-62
2021/07/27 10:11:13;;;;;;;6.57;4.10;;;;;;;29.58;44.77;99731.00;4479171;32;33987;-61
2021/07/27 10:13:45;;;;;;;8.18;4.18;;;;;;;29.60;44.79;99730.72;4484868;32;33990;-61
2021/07/27 10:16:24;;;;;;;7.05;3.90;;;;;;;29.59;44.86;99731.81;4484871;32;34022;-61
2021/07/27 10:18:52;;;;;;;7.57;3.95;;;;;;;29.59;44.82;99723.56;4478178;32;34689;-61
2021/07/27 10:21:28;;;;;;;7.55;3.87;;;;;;;29.62;44.82;99725.81;4469235;32;34644;-61
2021/07/27 10:23:59;;;;;;;8.20;3.83;;;;;;;29.64;44.87;99737.34;4469073;32;34908;-61
2021/07/27 10:26:32;;;;;;;8.40;4.32;;;;;;;29.62;44.87;99731.31;4468888;32;34575;-61
2021/07/27 10:29:00;;;;;;;5.40;3.55;;;;;;;29.62;44.85;99720.31;4468872;32;33158;-61
2021/07/27 10:31:35;;;;;;;6.70;4.00;;;;;;;29.64;44.85;99724.41;4468339;32;34031;-61
2021/07/27 10:34:04;;;;;;;7.75;3.92;;;;;;;29.65;44.81;99717.81;4482534;32;34064;-61
2021/07/27 10:36:34;;;;;;;8.82;4.28;;;;;;;29.64;44.82;99721.66;4484662;32;34223;-62
2021/07/27 10:39:05;;;;;;;5.10;3.45;;;;;;;29.62;44.80;99723.88;4484406;32;33373;-61
2021/07/27 10:41:51;;;;;;;8.63;3.97;;;;;;;29.63;44.75;99722.78;4484804;32;33980;-61
2021/07/27 10:44:23;;;;;;;8.27;3.70;;;;;;;29.67;44.71;99723.06;4484418;32;34354;-62
2021/07/27 10:46:51;;;;;;;10.23;3.58;;;;;;;29.64;44.77;99718.91;4484809;32;33946;-61
2021/07/27 10:49:22;;;;;;;8.50;3.75;;;;;;;29.65;44.77;99717.00;4484885;32;34294;-62
2021/07/27 10:51:51;;;;;;;8.55;3.50;;;;;;;29.64;44.80;99718.91;4484759;32;33774;-61
2021/07/27 10:54:27;;;;;;;7.45;3.83;;;;;;;29.62;44.81;99712.88;4469806;32;33552;-62
2021/07/27 10:57:02;;;;;;;6.82;3.58;;;;;;;29.64;44.75;99718.91;4468944;32;33922;-61
2021/07/27 10:59:31;;;;;;;8.93;3.83;;;;;;;29.62;44.78;99712.88;4469039;32;34242;-62
2021/07/27 11:01:59;;;;;;;6.57;3.70;;;;;;;29.62;44.73;99706.56;4467772;32;33951;-62
2021/07/27 11:04:31;;;;;;;7.03;3.37;;;;;;;29.61;44.71;99711.22;4469278;32;33367;-62
2021/07/27 11:07:15;;;;;;;9.65;3.97;;;;;;;29.60;44.71;99712.31;4471823;32;35075;-61
2021/07/27 11:09:53;;;;;;;6.53;3.60;;;;;;;29.62;44.63;99710.13;4484126;32;34233;-62
2021/07/27 11:12:31;;;;;;;8.20;4.28;;;;;;;29.58;44.70;99709.00;4484459;32;34645;-61
2021/07/27 11:15:12;;;;;;;8.82;4.22;;;;;;;29.59;44.66;99705.16;4484654;32;33664;-61
2021/07/27 11:17:53;;;;;;;6.82;3.92;;;;;;;29.60;44.65;99711.47;4484652;32;35312;-61
2021/07/27 11:20:22;;;;;;;6.80;3.90;;;;;;;29.57;44.69;99704.63;4484650;32;33566;-62
2021/07/27 11:22:52;;;;;;;7.32;3.87;;;;;;;29.57;44.68;99714.78;4492309;31;33938;-62
2021/07/27 11:25:23;;;;;;;7.03;4.22;;;;;;;29.57;44.67;99703.78;4484595;32;33995;-61
2021/07/27 11:27:51;;;;;;;7.93;4.03;;;;;;;29.56;44.66;99702.94;4496063;31;33733;-62
2021/07/27 11:30:23;;;;;;;6.05;3.45;;;;;;;29.56;44.65;99697.44;4484563;32;33685;-61
2021/07/27 11:32:51;;;;;;;8.05;4.15;;;;;;;29.54;44.63;99696.87;4483121;32;33864;-61
2021/07/27 11:35:21;;;;;;;6.45;3.58;;;;;;;29.56;44.62;99700.19;4484440;32;33936;-61
2021/07/27 11:38:04;;;;;;;7.00;3.58;;;;;;;29.55;44.60;99703.22;4483326;32;34989;-61
2021/07/27 11:40:35;;;;;;;6.10;3.65;;;;;;;29.57;44.56;99699.13;4484222;32;33736;-61
2021/07/27 11:43:07;;;;;;;6.25;3.45;;;;;;;29.54;44.58;99690.53;4484535;32;34093;-61
2021/07/27 11:45:38;;;;;;;7.37;3.83;;;;;;;29.53;44.55;99692.47;4483158;32;34008;-61
2021/07/27 11:48:07;;;;;;;7.97;3.53;;;;;;;29.56;44.56;99699.38;4484435;32;33917;-62
2021/07/27 11:50:38;;;;;;;7.78;3.72;;;;;;;29.54;44.61;99702.38;4491109;31;33602;-62
2021/07/27 11:53:07;;;;;;;8.05;4.05;;;;;;;29.52;44.70;99700.97;4500073;31;33892;-62